Time;durP1;ratioP1;P1;durP2;ratioP2;P2;SDS_P1;SDS_P2;PMS_P1;PMS_P2;Temp;Humidity;BMP_temperature;BMP_pressure;BME280_temperature;BME280_humidity;BME280_pressure;Samples;Min_cycle;Max_cycle;Signal;HPM_P1;HPM_P2
2021/04/04 00:00:40;;;;;;;6.82;1.40;;;7.00;63.30;;;;;;2088121;28;20025;-79
2021/04/04 00:01:40;;;;;;;6.90;1.33;;;6.90;63.10;;;;;;2089273;28;20029;-81
2021/04/04 00:02:42;;;;;;;5.63;1.50;;;7.00;63.20;;;;;;2080603;28;20053;-80
2021/04/04 00:03:42;;;;;;;4.45;1.10;;;6.90;63.20;;;;;;2072835;28;20036;-81
2021/04/04 00:04:43;;;;;;;4.97;1.10;;;6.90;63.20;;;;;;2073051;28;20419;-80
2021/04/04 00:05:44;;;;;;;5.80;1.40;;;7.00;63.30;;;;;;2088497;28;20025;-80
2021/04/04 00:06:44;;;;;;;4.95;1.05;;;7.00;63.20;;;;;;2089115;28;20043;-80
2021/04/04 00:07:45;;;;;;;6.90;1.40;;;7.00;63.20;;;;;;2081475;28;20108;-81
2021/04/04 00:08:47;;;;;;;4.32;1.00;;;7.00;63.20;;;;;;2087014;28;20390;-80
2021/04/04 00:09:47;;;;;;;4.25;1.50;;;7.00;63.30;;;;;;2088665;28;20108;-81
2021/04/04 00:10:48;;;;;;;4.95;1.05;;;7.00;63.20;;;;;;2080768;28;20307;-80
2021/04/04 00:11:49;;;;;;;4.28;1.35;;;7.00;63.20;;;;;;2078881;28;20033;-80
2021/04/04 00:12:50;;;;;;;5.43;1.38;;;7.00;63.20;;;;;;2081179;28;20021;-80
2021/04/04 00:13:51;;;;;;;4.22;1.17;;;7.00;63.20;;;;;;2072644;28;20067;-80
2021/04/04 00:14:52;;;;;;;5.13;1.33;;;7.00;63.20;;;;;;2064818;28;20511;-80
2021/04/04 00:15:52;;;;;;;6.07;1.67;;;7.00;63.30;;;;;;2072809;28;20518;-80
2021/04/04 00:16:53;;;;;;;4.35;1.10;;;7.00;63.30;;;;;;2066877;28;20510;-79
2021/04/04 00:17:54;;;;;;;3.35;1.10;;;7.00;63.30;;;;;;2080525;28;20116;-80
2021/04/04 00:18:54;;;;;;;4.68;1.02;;;7.10;63.30;;;;;;2072720;28;20030;-80
2021/04/04 00:19:55;;;;;;;6.85;1.30;;;7.00;63.20;;;;;;2069375;28;20022;-80
2021/04/04 00:20:55;;;;;;;4.78;1.27;;;7.00;63.30;;;;;;2072458;28;20034;-81
2021/04/04 00:21:56;;;;;;;6.25;1.63;;;7.00;63.30;;;;;;2070792;28;20081;-81
2021/04/04 00:22:57;;;;;;;4.53;1.10;;;7.00;63.40;;;;;;2080899;28;20065;-80
2021/04/04 00:23:57;;;;;;;5.40;1.40;;;7.00;63.40;;;;;;2089162;28;20075;-81
2021/04/04 00:24:58;;;;;;;3.47;0.98;;;7.00;63.50;;;;;;2088578;28;20056;-81
2021/04/04 00:25:58;;;;;;;5.13;1.05;;;7.00;63.50;;;;;;2080838;28;20033;-80
2021/04/04 00:26:59;;;;;;;6.72;1.20;;;7.00;63.50;;;;;;2081436;28;20036;-80
2021/04/04 00:28:00;;;;;;;4.53;1.08;;;7.00;63.50;;;;;;2085712;28;20048;-81
2021/04/04 00:29:05;;;;;;;4.20;1.10;;;7.00;63.60;;;;;;2072720;28;20048;-81
2021/04/04 00:30:08;;;;;;;3.10;1.20;;;7.00;63.50;;;;;;2087172;28;20462;-81
2021/04/04 00:31:09;;;;;;;4.47;1.50;;;7.00;63.50;;;;;;2080864;28;20041;-81
2021/04/04 00:32:09;;;;;;;4.03;1.10;;;7.00;63.60;;;;;;2082558;28;20147;-80
2021/04/04 00:33:10;;;;;;;3.83;1.30;;;7.00;63.60;;;;;;2089922;28;20054;-81
2021/04/04 00:34:11;;;;;;;6.50;1.17;;;7.00;63.60;;;;;;2088901;28;20029;-81
2021/04/04 00:35:16;;;;;;;4.68;1.30;;;7.00;63.60;;;;;;2079277;28;20079;-81
2021/04/04 00:36:16;;;;;;;7.88;1.00;;;7.00;63.80;;;;;;2080604;28;20044;-81
2021/04/04 00:37:17;;;;;;;3.15;0.90;;;7.00;63.60;;;;;;2071242;28;20038;-81
2021/04/04 00:38:18;;;;;;;3.45;1.13;;;7.00;63.70;;;;;;2065905;28;20049;-81
2021/04/04 00:39:19;;;;;;;6.30;1.17;;;7.00;63.70;;;;;;2080710;28;20029;-81
2021/04/04 00:40:26;;;;;;;5.13;1.00;;;7.00;63.80;;;;;;2083294;28;20479;-81
2021/04/04 00:41:27;;;;;;;5.63;1.10;;;7.00;63.70;;;;;;2081153;28;20487;-80
2021/04/04 00:42:27;;;;;;;3.75;0.95;;;7.00;63.80;;;;;;2084192;28;20021;-80
2021/04/04 00:43:28;;;;;;;5.32;1.23;;;7.00;63.80;;;;;;2093743;28;20499;-81
2021/04/04 00:44:29;;;;;;;3.60;0.90;;;7.00;63.80;;;;;;2080658;28;20500;-80
2021/04/04 00:45:32;;;;;;;4.03;1.00;;;7.00;63.80;;;;;;2080328;28;20072;-81
2021/04/04 00:46:33;;;;;;;4.90;1.02;;;7.10;63.80;;;;;;2086047;28;20035;-80
2021/04/04 00:47:34;;;;;;;4.18;1.05;;;7.00;63.70;;;;;;2088642;28;20036;-80
2021/04/04 00:48:34;;;;;;;6.40;1.20;;;7.10;63.80;;;;;;2093315;28;20054;-80
2021/04/04 00:49:35;;;;;;;5.35;1.27;;;7.10;63.80;;;;;;2080587;28;20443;-80
2021/04/04 00:50:38;;;;;;;5.22;1.15;;;7.10;63.70;;;;;;2072342;28;20121;-81
2021/04/04 00:51:39;;;;;;;4.78;1.20;;;7.10;63.70;;;;;;2088517;28;20120;-81
2021/04/04 00:52:40;;;;;;;5.57;1.15;;;7.10;64.40;;;;;;2088532;28;20033;-81
2021/04/04 00:53:42;;;;;;;4.90;1.10;;;7.10;63.80;;;;;;2088384;28;20372;-81
2021/04/04 00:54:43;;;;;;;7.20;1.25;;;7.10;63.80;;;;;;2088906;28;20025;-82
2021/04/04 00:55:44;;;;;;;4.70;1.23;;;7.10;63.90;;;;;;2072667;28;20032;-82
2021/04/04 00:56:45;;;;;;;5.60;0.93;;;7.10;63.90;;;;;;2080917;28;20036;-81
2021/04/04 00:57:46;;;;;;;4.20;1.10;;;7.10;63.90;;;;;;2089526;28;20116;-81
2021/04/04 00:58:48;;;;;;;6.43;1.20;;;7.10;64.00;;;;;;2084006;28;20033;-81
2021/04/04 00:59:49;;;;;;;6.05;1.10;;;7.10;64.70;;;;;;2080796;28;20429;-82
2021/04/04 01:00:50;;;;;;;4.70;1.02;;;7.10;64.00;;;;;;2071538;28;20026;-82
2021/04/04 01:01:50;;;;;;;4.32;0.90;;;7.10;64.60;;;;;;2072588;28;20066;-81
2021/04/04 01:02:54;;;;;;;5.10;1.00;;;7.10;64.00;;;;;;2089381;28;20031;-82
2021/04/04 01:03:55;;;;;;;4.93;0.80;;;7.10;63.90;;;;;;2082800;28;20025;-82
2021/04/04 01:04:57;;;;;;;5.43;1.17;;;7.10;64.60;;;;;;2064408;28;20022;-81
2021/04/04 01:06:03;;;;;;;4.63;1.00;;;7.10;64.70;;;;;;2064775;28;20031;-81
2021/04/04 01:07:03;;;;;;;4.10;0.93;;;7.10;64.00;;;;;;2078645;28;20037;-81
2021/04/04 01:08:05;;;;;;;3.92;1.20;;;7.20;64.10;;;;;;2086210;28;20056;-81
2021/04/04 01:09:06;;;;;;;4.18;1.00;;;7.20;64.00;;;;;;2072923;28;20061;-81
2021/04/04 01:10:08;;;;;;;3.58;0.93;;;7.20;64.00;;;;;;2072272;28;21817;-81
2021/04/04 01:11:15;;;;;;;2.60;0.75;;;7.10;64.00;;;;;;2070822;28;20028;-81
2021/04/04 01:12:38;;;;;;;5.90;1.20;;;7.20;64.10;;;;;;2080024;28;20029;-82
2021/04/04 01:13:44;;;;;;;4.85;0.95;;;7.20;64.10;;;;;;2086530;28;20032;-81
2021/04/04 01:15:03;;;;;;;6.10;1.00;;;7.20;64.00;;;;;;2088905;28;20032;-81
2021/04/04 01:16:16;;;;;;;4.97;1.30;;;7.20;64.00;;;;;;2081941;28;20112;-81
2021/04/04 01:17:20;;;;;;;4.82;1.13;;;7.20;63.90;;;;;;2084359;28;20034;-81
2021/04/04 01:18:32;;;;;;;5.20;0.90;;;7.20;64.00;;;;;;2094594;28;20074;-81
2021/04/04 01:19:39;;;;;;;5.20;0.90;;;7.20;64.00;;;;;;2099068;28;20021;-81
2021/04/04 01:20:48;;;;;;;4.47;1.00;;;7.20;64.00;;;;;;2083601;28;20029;-81
2021/04/04 01:22:29;;;;;;;3.28;0.88;;;7.20;64.00;;;;;;2084741;28;20021;-81
2021/04/04 01:23:47;;;;;;;3.92;1.20;;;7.20;64.10;;;;;;2061288;28;20088;-81
2021/04/04 01:25:07;;;;;;;4.80;1.00;;;7.20;64.00;;;;;;2090152;28;20462;-81
2021/04/04 01:26:12;;;;;;;4.93;1.20;;;7.20;64.00;;;;;;2082217;28;20029;-81
2021/04/04 01:27:33;;;;;;;4.10;0.90;;;7.20;64.10;;;;;;2082918;28;20060;-81
2021/04/04 01:28:40;;;;;;;6.80;1.30;;;7.20;64.10;;;;;;2091247;28;20028;-81
2021/04/04 01:29:42;;;;;;;5.50;1.00;;;7.10;64.10;;;;;;2082095;28;20068;-81
2021/04/04 01:30:45;;;;;;;3.85;1.00;;;7.10;64.10;;;;;;2072505;28;20097;-81
2021/04/04 01:31:49;;;;;;;6.05;0.90;;;7.10;64.20;;;;;;2082037;28;20038;-81
2021/04/04 01:32:50;;;;;;;3.35;0.77;;;7.10;64.30;;;;;;2082268;28;20475;-81
2021/04/04 01:33:54;;;;;;;4.65;1.02;;;7.10;64.30;;;;;;2079788;28;20071;-81
2021/04/04 01:34:55;;;;;;;4.78;1.00;;;7.10;64.30;;;;;;2082540;28;20542;-81
2021/04/04 01:35:58;;;;;;;6.05;1.30;;;7.10;64.40;;;;;;2082078;28;20025;-81
2021/04/04 01:37:04;;;;;;;3.63;1.00;;;7.10;64.40;;;;;;2077518;28;20419;-81
2021/04/04 01:38:12;;;;;;;4.43;1.13;;;7.10;64.40;;;;;;2091146;28;20029;-81
2021/04/04 01:39:14;;;;;;;5.57;0.80;;;7.00;64.40;;;;;;2091456;28;20017;-81
2021/04/04 01:40:18;;;;;;;2.92;0.98;;;7.00;64.40;;;;;;2093827;28;20017;-82
2021/04/04 01:41:31;;;;;;;4.10;0.90;;;7.10;64.50;;;;;;2082022;28;20052;-81
2021/04/04 01:42:34;;;;;;;3.88;0.88;;;7.00;64.40;;;;;;2083583;28;20037;-81
2021/04/04 01:43:37;;;;;;;3.45;0.95;;;7.00;64.40;;;;;;2090382;28;20495;-80
2021/04/04 01:44:42;;;;;;;4.38;1.00;;;7.10;64.40;;;;;;2090960;28;20029;-81
2021/04/04 01:45:44;;;;;;;5.13;1.00;;;7.00;64.40;;;;;;2090310;28;20021;-80
2021/04/04 01:46:47;;;;;;;5.55;1.08;;;7.10;64.50;;;;;;2088531;28;20083;-81
2021/04/04 01:47:49;;;;;;;4.22;0.90;;;7.10;64.50;;;;;;2082075;28;20030;-81
2021/04/04 01:48:51;;;;;;;4.53;0.90;;;7.10;64.50;;;;;;2082455;28;20040;-81
2021/04/04 01:49:53;;;;;;;3.25;0.90;;;7.10;64.50;;;;;;2094465;28;20593;-81
2021/04/04 01:50:54;;;;;;;4.65;0.73;;;7.10;64.50;;;;;;2098837;28;20077;-81
2021/04/04 01:51:56;;;;;;;3.53;1.00;;;7.10;64.60;;;;;;2081960;28;20040;-81
2021/04/04 01:52:58;;;;;;;4.82;1.00;;;7.10;64.50;;;;;;2066402;28;20085;-81
2021/04/04 01:54:03;;;;;;;6.20;1.27;;;7.00;64.50;;;;;;2082479;28;20041;-81
2021/04/04 01:55:06;;;;;;;6.05;0.95;;;7.10;64.60;;;;;;2090858;28;20103;-81
2021/04/04 01:56:07;;;;;;;3.03;0.90;;;7.00;64.50;;;;;;2085642;28;20029;-81
2021/04/04 01:57:09;;;;;;;3.70;0.90;;;7.00;64.60;;;;;;2079284;28;20479;-80
2021/04/04 01:58:11;;;;;;;4.50;0.80;;;7.00;64.70;;;;;;2081375;28;20061;-81
2021/04/04 01:59:13;;;;;;;6.30;1.02;;;6.90;64.70;;;;;;2068321;28;20028;-81
2021/04/04 02:00:20;;;;;;;2.58;0.77;;;6.90;64.70;;;;;;2082472;28;20159;-81
2021/04/04 02:01:21;;;;;;;3.88;0.80;;;7.00;64.90;;;;;;2098672;28;20023;-81
2021/04/04 02:02:22;;;;;;;4.03;0.95;;;7.00;64.80;;;;;;2089474;28;20029;-81
2021/04/04 02:03:23;;;;;;;4.78;0.90;;;7.00;64.80;;;;;;2073490;28;20022;-81
2021/04/04 02:04:25;;;;;;;3.47;1.02;;;7.00;64.80;;;;;;2074058;28;20053;-80
2021/04/04 02:05:27;;;;;;;4.55;1.00;;;7.00;64.80;;;;;;2084624;28;20076;-81
2021/04/04 02:06:27;;;;;;;3.58;0.90;;;7.00;64.80;;;;;;2090003;28;20533;-81
2021/04/04 02:07:29;;;;;;;4.40;0.90;;;7.00;64.80;;;;;;2081914;28;20029;-81
2021/04/04 02:08:31;;;;;;;2.63;1.00;;;7.00;64.80;;;;;;2073802;28;20101;-80
2021/04/04 02:09:34;;;;;;;7.03;1.17;;;7.00;64.70;;;;;;2077634;28;20026;-81
2021/04/04 02:10:37;;;;;;;5.07;1.00;;;7.10;64.80;;;;;;2074215;28;20030;-80
2021/04/04 02:11:39;;;;;;;4.65;0.90;;;7.10;64.80;;;;;;2088191;28;20545;-81
2021/04/04 02:12:42;;;;;;;3.70;0.90;;;7.10;64.80;;;;;;2098110;28;20037;-81
2021/04/04 02:13:44;;;;;;;2.78;0.80;;;7.10;64.80;;;;;;2081928;28;20026;-80
2021/04/04 02:14:46;;;;;;;5.93;0.90;;;7.10;64.80;;;;;;2086830;28;20071;-81
2021/04/04 02:15:48;;;;;;;2.67;0.73;;;7.10;64.70;;;;;;2099022;28;20081;-81
2021/04/04 02:16:54;;;;;;;2.47;0.70;;;7.10;64.80;;;;;;2088803;28;20124;-81
2021/04/04 02:17:55;;;;;;;3.65;0.90;;;7.00;64.70;;;;;;2082704;28;20104;-81
2021/04/04 02:18:56;;;;;;;4.18;1.00;;;7.10;64.80;;;;;;2086924;28;20043;-81
2021/04/04 02:19:59;;;;;;;4.55;0.98;;;7.00;64.80;;;;;;2076216;28;20024;-81
2021/04/04 02:21:00;;;;;;;4.78;1.02;;;7.00;64.90;;;;;;2080370;28;20551;-81
2021/04/04 02:22:01;;;;;;;3.40;1.05;;;7.00;64.90;;;;;;2081952;28;20056;-81
2021/04/04 02:23:05;;;;;;;3.42;0.88;;;7.00;65.00;;;;;;2082104;28;20444;-81
2021/04/04 02:24:06;;;;;;;4.45;0.90;;;7.10;65.00;;;;;;2087179;28;20032;-80
2021/04/04 02:25:10;;;;;;;4.53;0.95;;;7.10;65.00;;;;;;2089941;28;20119;-81
2021/04/04 02:26:10;;;;;;;4.53;0.90;;;7.00;65.00;;;;;;2090500;28;20032;-81
2021/04/04 02:27:11;;;;;;;4.30;0.88;;;7.10;65.00;;;;;;2081911;28;20096;-81
2021/04/04 02:28:12;;;;;;;3.10;0.90;;;7.10;65.00;;;;;;2073167;28;20065;-80
2021/04/04 02:29:13;;;;;;;4.65;0.98;;;7.00;65.00;;;;;;2081545;28;20479;-80
2021/04/04 02:30:16;;;;;;;2.42;0.60;;;7.10;65.10;;;;;;2078846;28;20033;-81
2021/04/04 02:31:18;;;;;;;3.33;0.75;;;7.10;65.10;;;;;;2089111;28;20055;-81
2021/04/04 02:32:21;;;;;;;3.22;1.02;;;7.10;65.10;;;;;;2081532;28;20040;-81
2021/04/04 02:33:36;;;;;;;4.18;0.90;;;7.10;65.10;;;;;;2081586;28;20511;-81
2021/04/04 02:34:40;;;;;;;4.22;0.90;;;7.10;65.10;;;;;;2081266;28;20140;-81
2021/04/04 02:35:43;;;;;;;5.80;0.93;;;7.10;65.10;;;;;;2083226;28;20742;-80
2021/04/04 02:36:44;;;;;;;4.57;0.77;;;7.10;65.10;;;;;;2095227;28;20036;-81
2021/04/04 02:37:46;;;;;;;4.88;1.42;;;7.10;65.10;;;;;;2098871;28;20037;-81
2021/04/04 02:38:57;;;;;;;3.28;0.88;;;7.10;65.10;;;;;;2097190;28;20025;-81
2021/04/04 02:40:03;;;;;;;5.75;0.77;;;7.20;65.10;;;;;;2081768;28;20092;-81
2021/04/04 02:41:06;;;;;;;6.35;0.90;;;7.20;65.10;;;;;;2081969;28;20543;-81
2021/04/04 02:42:08;;;;;;;3.60;0.90;;;7.10;65.00;;;;;;2082734;28;20025;-81
2021/04/04 02:43:14;;;;;;;3.78;1.00;;;7.20;65.10;;;;;;2088793;28;20032;-80
2021/04/04 02:44:15;;;;;;;3.40;0.80;;;7.20;65.10;;;;;;2091543;28;20024;-81
2021/04/04 02:45:18;;;;;;;4.15;0.95;;;7.20;65.10;;;;;;2090422;28;20033;-79
2021/04/04 02:46:23;;;;;;;3.50;0.73;;;7.20;65.10;;;;;;2089715;28;20031;-81
2021/04/04 02:47:33;;;;;;;5.43;0.85;;;7.20;65.20;;;;;;2086037;28;20025;-81
2021/04/04 02:48:40;;;;;;;3.25;0.90;;;7.20;65.20;;;;;;2081721;28;20022;-80
2021/04/04 02:49:47;;;;;;;3.30;0.80;;;7.10;65.20;;;;;;2086096;28;20029;-80
2021/04/04 02:50:49;;;;;;;3.28;0.70;;;7.10;65.20;;;;;;2082407;28;20032;-81
2021/04/04 02:51:52;;;;;;;5.35;1.00;;;7.10;65.20;;;;;;2089460;28;20103;-81
2021/04/04 02:52:58;;;;;;;5.90;1.08;;;7.10;65.30;;;;;;2080941;28;20045;-81
2021/04/04 02:54:00;;;;;;;3.85;0.85;;;7.10;65.30;;;;;;2081199;28;20495;-81
2021/04/04 02:55:02;;;;;;;4.15;0.70;;;7.10;65.30;;;;;;2089157;28;20017;-81
2021/04/04 02:56:04;;;;;;;3.05;0.90;;;7.10;65.30;;;;;;2081641;28;20072;-81
2021/04/04 02:57:08;;;;;;;3.90;0.80;;;7.20;65.30;;;;;;2081787;28;20093;-80
2021/04/04 02:58:10;;;;;;;4.47;0.90;;;7.20;65.40;;;;;;2089458;28;20071;-81
2021/04/04 02:59:17;;;;;;;3.40;0.80;;;7.20;65.40;;;;;;2089411;28;20369;-81
2021/04/04 03:00:18;;;;;;;4.32;0.95;;;7.10;65.40;;;;;;2082265;28;20444;-81
2021/04/04 03:01:20;;;;;;;2.50;0.52;;;7.10;65.40;;;;;;2086471;28;20029;-81
2021/04/04 03:02:23;;;;;;;4.25;1.52;;;7.20;65.50;;;;;;2081906;28;20156;-80
2021/04/04 03:03:28;;;;;;;5.78;0.88;;;7.20;65.50;;;;;;2089265;28;20028;-81
2021/04/04 03:04:33;;;;;;;4.05;1.02;;;7.10;65.50;;;;;;2087118;28;20021;-81
2021/04/04 03:05:34;;;;;;;2.97;0.82;;;7.20;65.50;;;;;;2088000;28;20057;-81
2021/04/04 03:06:40;;;;;;;4.50;0.93;;;7.20;65.40;;;;;;2073084;28;20424;-81
2021/04/04 03:07:44;;;;;;;2.55;0.90;;;7.20;65.50;;;;;;2074064;28;20022;-81
2021/04/04 03:08:50;;;;;;;3.63;0.90;;;7.10;65.40;;;;;;2065428;28;20065;-81
2021/04/04 03:09:52;;;;;;;4.13;1.02;;;7.20;65.60;;;;;;2077643;28;20128;-80
2021/04/04 03:10:55;;;;;;;4.32;0.80;;;7.10;65.50;;;;;;2083773;28;20025;-81
2021/04/04 03:11:56;;;;;;;3.22;1.00;;;7.20;65.60;;;;;;2086586;28;20033;-81
2021/04/04 03:12:58;;;;;;;5.68;0.85;;;7.20;65.60;;;;;;2089690;28;20025;-81
2021/04/04 03:14:00;;;;;;;4.10;0.88;;;7.10;65.60;;;;;;2073473;28;20030;-81
2021/04/04 03:15:03;;;;;;;3.92;1.00;;;7.20;65.60;;;;;;2080333;28;20535;-80
2021/04/04 03:16:05;;;;;;;4.65;1.00;;;7.10;65.60;;;;;;2080872;28;20037;-81
2021/04/04 03:17:08;;;;;;;3.78;1.00;;;7.10;65.60;;;;;;2088599;28;20029;-81
2021/04/04 03:18:08;;;;;;;3.55;0.82;;;7.20;65.70;;;;;;2080976;28;20427;-81
2021/04/04 03:19:14;;;;;;;3.30;0.80;;;7.20;65.70;;;;;;2072974;28;20030;-81
2021/04/04 03:20:15;;;;;;;4.25;0.88;;;7.10;65.70;;;;;;2089067;28;20036;-81
2021/04/04 03:21:17;;;;;;;3.78;0.70;;;7.20;65.70;;;;;;2084979;28;20025;-81
2021/04/04 03:22:19;;;;;;;3.50;0.70;;;7.10;65.70;;;;;;2081984;28;20408;-81
2021/04/04 03:23:22;;;;;;;6.50;1.10;;;7.10;65.80;;;;;;2081183;28;20025;-81
2021/04/04 03:24:25;;;;;;;3.75;0.60;;;7.10;65.80;;;;;;2073294;28;20037;-81
2021/04/04 03:25:26;;;;;;;2.47;0.90;;;7.20;65.90;;;;;;2075766;28;20022;-81
2021/04/04 03:26:28;;;;;;;7.78;1.20;;;7.10;65.80;;;;;;2065841;28;20049;-80
2021/04/04 03:27:29;;;;;;;3.28;1.00;;;7.10;65.80;;;;;;2064689;28;20125;-81
2021/04/04 03:28:31;;;;;;;3.63;0.88;;;7.10;65.80;;;;;;2073335;28;20034;-81
2021/04/04 03:29:33;;;;;;;3.85;1.02;;;7.10;65.90;;;;;;2081751;28;20033;-80
2021/04/04 03:30:35;;;;;;;3.05;0.75;;;7.10;65.90;;;;;;2088725;28;20423;-81
2021/04/04 03:31:37;;;;;;;3.83;0.73;;;7.10;66.00;;;;;;2081380;28;20033;-81
2021/04/04 03:32:38;;;;;;;5.90;0.95;;;7.10;66.00;;;;;;2081480;28;20026;-81
2021/04/04 03:33:38;;;;;;;4.30;0.80;;;7.10;66.00;;;;;;2081482;28;20392;-81
2021/04/04 03:34:40;;;;;;;3.42;1.00;;;7.10;66.10;;;;;;2065335;28;20085;-81
2021/04/04 03:35:43;;;;;;;3.88;0.75;;;7.10;66.10;;;;;;2072836;28;20532;-81
2021/04/04 03:36:45;;;;;;;3.80;0.90;;;7.10;66.10;;;;;;2081249;28;20045;-81
2021/04/04 03:37:46;;;;;;;3.65;0.88;;;7.10;66.20;;;;;;2084975;28;20041;-81
2021/04/04 03:38:50;;;;;;;4.55;0.90;;;7.10;66.20;;;;;;2082051;28;20502;-81
2021/04/04 03:39:51;;;;;;;4.60;0.93;;;7.10;66.20;;;;;;2073603;28;20030;-80
2021/04/04 03:40:54;;;;;;;3.15;0.73;;;7.10;66.20;;;;;;2084272;28;20080;-81
2021/04/04 03:41:58;;;;;;;3.78;0.90;;;7.10;66.20;;;;;;2089312;28;20098;-81
2021/04/04 03:43:03;;;;;;;2.90;0.95;;;7.10;66.20;;;;;;2081828;28;20498;-81
2021/04/04 03:44:06;;;;;;;3.30;0.80;;;7.10;66.20;;;;;;2084660;28;20022;-80
2021/04/04 03:45:07;;;;;;;3.60;0.80;;;7.10;66.20;;;;;;2081742;28;20079;-80
2021/04/04 03:46:12;;;;;;;3.20;0.80;;;7.10;66.20;;;;;;2080450;28;20542;-81
2021/04/04 03:47:13;;;;;;;4.40;1.00;;;7.10;66.10;;;;;;2081854;28;20096;-80
2021/04/04 03:48:14;;;;;;;5.40;0.85;;;7.10;66.20;;;;;;2081165;28;20039;-81
2021/04/04 03:49:15;;;;;;;4.22;0.85;;;7.00;66.20;;;;;;2081343;28;20534;-80
2021/04/04 03:50:18;;;;;;;2.55;0.75;;;7.00;66.80;;;;;;2072641;28;20136;-80
2021/04/04 03:51:23;;;;;;;2.65;0.60;;;7.00;66.30;;;;;;2073562;28;20060;-81
2021/04/04 03:52:24;;;;;;;2.95;0.85;;;6.90;66.20;;;;;;2089049;28;20033;-81
2021/04/04 03:53:27;;;;;;;3.67;0.80;;;6.90;66.30;;;;;;2072838;28;20026;-81
2021/04/04 03:54:30;;;;;;;3.22;0.95;;;6.90;66.30;;;;;;2073679;28;20494;-81
2021/04/04 03:55:32;;;;;;;1.88;0.60;;;7.00;66.40;;;;;;2081683;28;20037;-81
2021/04/04 03:56:35;;;;;;;3.45;0.80;;;6.90;66.40;;;;;;2080245;28;20033;-80
2021/04/04 03:57:37;;;;;;;2.38;0.60;;;6.90;66.40;;;;;;2083533;28;20040;-81
2021/04/04 03:58:39;;;;;;;2.33;0.70;;;6.90;66.40;;;;;;2065033;28;20037;-81
2021/04/04 03:59:41;;;;;;;3.03;0.60;;;6.90;66.50;;;;;;2073085;28;20029;-81
2021/04/04 04:00:45;;;;;;;3.05;0.60;;;6.90;66.50;;;;;;2074923;28;20115;-81
2021/04/04 04:01:47;;;;;;;3.60;0.70;;;6.90;66.50;;;;;;2073429;28;20022;-81
2021/04/04 04:02:49;;;;;;;4.25;0.75;;;6.90;66.50;;;;;;2085724;28;20037;-81
2021/04/04 04:03:51;;;;;;;4.07;0.80;;;6.90;66.50;;;;;;2084422;28;20109;-81
2021/04/04 04:04:54;;;;;;;5.05;0.65;;;6.90;66.50;;;;;;2087760;28;20025;-80
2021/04/04 04:05:56;;;;;;;2.22;0.70;;;6.90;66.50;;;;;;2086894;28;20017;-81
2021/04/04 04:06:59;;;;;;;3.88;1.05;;;6.90;66.50;;;;;;2089983;28;20471;-80
2021/04/04 04:08:00;;;;;;;3.30;0.70;;;6.90;66.50;;;;;;2089664;28;20052;-80
2021/04/04 04:09:16;;;;;;;2.50;0.88;;;6.90;66.50;;;;;;2087472;28;20526;-80
2021/04/04 04:10:18;;;;;;;5.60;0.80;;;7.00;66.50;;;;;;2088570;28;20028;-80
2021/04/04 04:11:19;;;;;;;3.33;0.73;;;6.90;66.50;;;;;;2088650;28;20036;-80
2021/04/04 04:12:20;;;;;;;3.85;0.70;;;6.90;66.50;;;;;;2079918;28;20032;-80
2021/04/04 04:13:22;;;;;;;3.65;0.88;;;6.90;66.50;;;;;;2064600;28;20022;-81
2021/04/04 04:14:23;;;;;;;5.95;1.08;;;6.90;66.50;;;;;;2068034;28;20515;-80
2021/04/04 04:15:25;;;;;;;2.33;0.55;;;6.90;66.50;;;;;;2072584;28;20048;-80
2021/04/04 04:16:26;;;;;;;2.30;0.77;;;6.90;66.60;;;;;;2080926;28;20042;-80
2021/04/04 04:17:27;;;;;;;3.30;0.63;;;6.90;66.60;;;;;;2082256;28;20117;-80
2021/04/04 04:18:29;;;;;;;2.80;0.80;;;6.80;66.60;;;;;;2081432;28;20048;-80
2021/04/04 04:19:30;;;;;;;3.72;0.80;;;6.80;66.60;;;;;;2088533;28;20033;-80
2021/04/04 04:20:32;;;;;;;2.63;0.70;;;6.90;66.70;;;;;;2080247;28;20057;-80
2021/04/04 04:21:33;;;;;;;3.88;0.90;;;6.80;66.70;;;;;;2084765;28;20037;-80
2021/04/04 04:22:34;;;;;;;2.38;0.57;;;6.90;66.70;;;;;;2080871;28;20423;-80
2021/04/04 04:23:37;;;;;;;2.25;0.65;;;6.90;66.70;;;;;;2072817;28;20069;-80
2021/04/04 04:24:38;;;;;;;2.20;0.75;;;6.90;66.70;;;;;;2087132;28;20041;-80
2021/04/04 04:25:41;;;;;;;3.65;0.80;;;6.90;66.70;;;;;;2080909;28;20402;-80
2021/04/04 04:26:44;;;;;;;3.58;0.80;;;6.90;66.80;;;;;;2082814;28;20028;-79
2021/04/04 04:27:46;;;;;;;2.95;0.77;;;6.80;66.70;;;;;;2082549;28;20037;-80
2021/04/04 04:28:47;;;;;;;2.13;0.60;;;6.90;66.80;;;;;;2073385;28;20025;-80
2021/04/04 04:29:50;;;;;;;2.97;0.73;;;6.80;66.70;;;;;;2087230;28;20513;-80
2021/04/04 04:30:50;;;;;;;2.65;0.75;;;6.80;66.80;;;;;;2089427;28;20036;-80
2021/04/04 04:31:58;;;;;;;2.83;0.95;;;6.80;66.80;;;;;;2089080;28;20048;-80
2021/04/04 04:33:04;;;;;;;2.88;0.70;;;6.80;66.80;;;;;;2088099;28;20549;-80
2021/04/04 04:34:07;;;;;;;1.67;0.50;;;6.80;66.80;;;;;;2080726;28;20025;-80
2021/04/04 04:35:09;;;;;;;2.50;0.70;;;6.80;66.80;;;;;;2066876;28;20109;-80
2021/04/04 04:36:11;;;;;;;3.20;0.57;;;6.80;66.90;;;;;;2073092;28;20026;-80
2021/04/04 04:37:13;;;;;;;3.45;1.10;;;6.80;66.90;;;;;;2084628;28;20021;-80
2021/04/04 04:38:14;;;;;;;3.45;0.77;;;6.80;66.90;;;;;;2088991;28;20111;-80
2021/04/04 04:39:16;;;;;;;4.20;0.70;;;6.80;66.90;;;;;;2087091;28;20032;-80
2021/04/04 04:40:18;;;;;;;2.72;0.80;;;6.80;67.00;;;;;;2080618;28;20029;-80
2021/04/04 04:41:21;;;;;;;3.63;0.90;;;6.80;67.00;;;;;;2082475;28;20522;-80
2021/04/04 04:42:21;;;;;;;3.30;0.80;;;6.80;67.00;;;;;;2088927;28;20116;-80
2021/04/04 04:43:24;;;;;;;3.97;0.70;;;6.80;67.00;;;;;;2086195;28;20025;-80
2021/04/04 04:44:27;;;;;;;2.97;0.73;;;6.90;67.00;;;;;;2088757;28;20115;-81
2021/04/04 04:45:31;;;;;;;2.28;0.60;;;6.80;67.00;;;;;;2088303;28;20099;-80
2021/04/04 04:46:34;;;;;;;2.83;0.90;;;6.90;67.00;;;;;;2084069;28;20492;-80
2021/04/04 04:47:34;;;;;;;2.88;0.60;;;6.90;67.00;;;;;;2089071;28;20021;-81
2021/04/04 04:48:35;;;;;;;4.00;0.80;;;6.90;67.00;;;;;;2071672;28;20045;-80
2021/04/04 04:49:36;;;;;;;3.30;0.80;;;6.90;67.00;;;;;;2079547;28;20036;-79
2021/04/04 04:50:40;;;;;;;5.78;0.80;;;6.90;67.00;;;;;;2080256;28;20026;-80
2021/04/04 04:51:41;;;;;;;3.58;0.68;;;6.90;66.90;;;;;;2078429;28;20403;-80
2021/04/04 04:52:41;;;;;;;3.92;0.60;;;6.90;66.90;;;;;;2064795;28;20066;-80
2021/04/04 04:53:42;;;;;;;3.58;0.80;;;6.90;66.90;;;;;;2064162;28;20516;-80
2021/04/04 04:54:43;;;;;;;2.58;0.70;;;6.90;67.50;;;;;;2072618;28;20038;-80
2021/04/04 04:55:47;;;;;;;2.42;0.50;;;6.90;67.00;;;;;;2073904;28;20022;-80
2021/04/04 04:56:48;;;;;;;2.72;0.55;;;6.90;67.00;;;;;;2087089;28;20067;-80
2021/04/04 04:57:49;;;;;;;3.50;0.60;;;6.90;67.70;;;;;;2081298;28;20393;-80
2021/04/04 04:58:51;;;;;;;2.13;0.60;;;6.90;67.10;;;;;;2080632;28;20048;-80
2021/04/04 04:59:52;;;;;;;2.67;0.70;;;6.90;67.10;;;;;;2080265;28;20064;-80
2021/04/04 05:00:58;;;;;;;2.17;0.63;;;6.90;67.20;;;;;;2082225;28;20041;-80
2021/04/04 05:01:59;;;;;;;3.13;0.55;;;6.90;67.20;;;;;;2080624;28;20116;-81
2021/04/04 05:03:01;;;;;;;2.95;0.60;;;6.90;67.80;;;;;;2080689;28;20415;-80
2021/04/04 05:04:03;;;;;;;2.08;0.60;;;6.90;67.20;;;;;;2080764;28;20490;-81
2021/04/04 05:05:06;;;;;;;2.80;0.80;;;6.90;67.20;;;;;;2081315;28;20033;-80
2021/04/04 05:06:09;;;;;;;2.58;0.63;;;6.90;67.20;;;;;;2081052;28;20030;-81
2021/04/04 05:07:10;;;;;;;2.17;0.70;;;6.90;67.20;;;;;;2080875;28;20026;-81
2021/04/04 05:08:14;;;;;;;3.08;0.68;;;7.00;67.30;;;;;;2081137;28;20083;-81
2021/04/04 05:09:17;;;;;;;3.55;0.77;;;7.00;67.30;;;;;;2084276;28;20953;-81
2021/04/04 05:10:20;;;;;;;2.65;0.55;;;7.00;67.20;;;;;;2072735;28;20038;-81
2021/04/04 05:11:22;;;;;;;1.67;0.45;;;7.00;67.20;;;;;;2080728;28;20025;-81
2021/04/04 05:12:24;;;;;;;3.80;0.65;;;7.00;67.20;;;;;;2086856;28;20017;-80
2021/04/04 05:13:25;;;;;;;2.20;0.55;;;7.00;67.30;;;;;;2073050;28;20561;-80
2021/04/04 05:14:26;;;;;;;3.08;0.60;;;7.00;67.20;;;;;;2074852;28;20095;-80
2021/04/04 05:15:27;;;;;;;2.40;0.65;;;7.00;67.20;;;;;;2088390;28;20493;-80
2021/04/04 05:16:30;;;;;;;2.90;0.70;;;7.00;67.30;;;;;;2089054;28;20033;-80
2021/04/04 05:17:35;;;;;;;2.22;0.57;;;7.00;67.30;;;;;;2088974;28;20088;-81
2021/04/04 05:18:37;;;;;;;3.00;0.57;;;7.00;67.30;;;;;;2088869;28;20080;-80
2021/04/04 05:19:38;;;;;;;4.93;0.63;;;7.00;67.30;;;;;;2087668;28;20013;-80
2021/04/04 05:20:38;;;;;;;2.75;0.43;;;7.00;67.20;;;;;;2080830;28;20496;-80
2021/04/04 05:21:42;;;;;;;3.50;0.60;;;7.00;67.20;;;;;;2072319;28;20030;-80
2021/04/04 05:22:44;;;;;;;2.85;0.70;;;7.00;67.20;;;;;;2080314;28;20041;-80
2021/04/04 05:23:45;;;;;;;2.35;0.70;;;7.00;67.20;;;;;;2088925;28;20021;-80
2021/04/04 05:24:47;;;;;;;2.30;0.60;;;7.00;67.20;;;;;;2075455;28;20033;-80
2021/04/04 05:25:53;;;;;;;3.42;0.80;;;7.00;67.30;;;;;;2074147;28;20655;-80
2021/04/04 05:26:54;;;;;;;3.05;0.60;;;7.00;67.30;;;;;;2092727;28;20029;-79
2021/04/04 05:27:58;;;;;;;3.03;0.52;;;7.00;67.30;;;;;;2088900;28;20033;-80
2021/04/04 05:29:07;;;;;;;2.63;0.68;;;7.00;67.40;;;;;;2083045;28;20036;-80
2021/04/04 05:30:10;;;;;;;4.75;0.70;;;7.00;67.40;;;;;;2080293;28;20037;-80
2021/04/04 05:31:11;;;;;;;3.03;0.75;;;6.90;67.40;;;;;;2079330;28;20533;-80
2021/04/04 05:32:12;;;;;;;3.05;0.60;;;6.90;67.40;;;;;;2072889;28;20030;-80